Time;durP1;ratioP1;P1;durP2;ratioP2;P2;SDS_P1;SDS_P2;PMS_P1;PMS_P2;Temp;Humidity;BMP_temperature;BMP_pressure;BME280_temperature;BME280_humidity;BME280_pressure;Samples;Min_cycle;Max_cycle;Signal;HPM_P1;HPM_P2
2021/09/14 00:01:20;;;;;;;18.75;12.28;;;;;;;13.68;81.77;99142.73;2270691;78;20951;-80
2021/09/14 00:04:20;;;;;;;21.48;13.03;;;;;;;13.58;81.66;99139.19;2287326;78;21029;-79
2021/09/14 00:07:21;;;;;;;35.90;15.13;;;;;;;13.47;81.53;99142.63;2271140;77;20967;-79
2021/09/14 00:10:21;;;;;;;15.63;12.70;;;;;;;13.37;81.86;99137.34;2292138;77;20971;-80
2021/09/14 00:13:22;;;;;;;219.85;28.62;;;;;;;13.31;81.87;99134.69;2249732;78;20935;-80
2021/09/14 00:16:22;;;;;;;21.15;13.43;;;;;;;13.27;82.05;99131.61;2275750;78;20991;-80
2021/09/14 00:19:23;;;;;;;21.90;12.88;;;;;;;13.21;81.80;99128.95;2290047;78;21015;-80
2021/09/14 00:22:23;;;;;;;15.93;11.83;;;;;;;13.13;81.54;99133.23;2281129;78;21385;-80
2021/09/14 00:25:24;;;;;;;25.62;13.83;;;;;;;13.03;81.48;99132.73;2283780;77;20978;-80
2021/09/14 00:28:24;;;;;;;21.25;13.83;;;;;;;12.97;81.74;99136.59;2282139;77;20972;-80
2021/09/14 00:31:25;;;;;;;23.32;15.60;;;;;;;12.92;82.03;99144.42;2250351;78;20991;-81
2021/09/14 00:34:25;;;;;;;22.20;14.98;;;;;;;12.91;82.57;99150.96;2269655;78;20958;-80
2021/09/14 00:37:26;;;;;;;18.98;13.38;;;;;;;12.91;82.63;99149.65;2260506;77;20967;-80
2021/09/14 00:40:27;;;;;;;21.42;13.75;;;;;;;12.83;82.13;99149.59;2280134;77;20956;-80
2021/09/14 00:43:27;;;;;;;18.75;13.68;;;;;;;12.73;82.16;99154.31;2262748;78;20947;-80
2021/09/14 00:46:28;;;;;;;21.10;11.80;;;;;;;12.68;81.73;99152.97;2264299;77;20920;-80
2021/09/14 00:49:28;;;;;;;18.90;13.13;;;;;;;12.64;81.68;99160.35;2272442;77;20956;-79
2021/09/14 00:52:29;;;;;;;17.02;13.20;;;;;;;12.60;81.70;99165.55;2274620;78;20946;-80
2021/09/14 00:55:29;;;;;;;16.07;11.85;;;;;;;12.54;81.64;99166.38;2250123;78;20995;-80
2021/09/14 00:58:30;;;;;;;19.00;12.95;;;;;;;12.48;81.47;99159.77;2266970;78;20978;-79
2021/09/14 01:01:30;;;;;;;21.80;12.23;;;;;;;12.42;81.44;99161.03;2279940;78;21019;-80
2021/09/14 01:04:31;;;;;;;22.70;14.18;;;;;;;12.31;81.46;99157.00;2286534;77;21272;-79
2021/09/14 01:07:31;;;;;;;25.32;14.85;;;;;;;12.24;81.77;99153.00;2262124;77;20948;-79
2021/09/14 01:10:32;;;;;;;22.10;15.58;;;;;;;12.13;81.89;99152.85;2279806;78;20964;-79
2021/09/14 01:13:32;;;;;;;23.92;14.10;;;;;;;12.07;82.03;99149.74;2298595;77;21028;-79
2021/09/14 01:16:33;;;;;;;19.95;14.80;;;;;;;12.03;82.03;99151.00;2281751;77;20945;-79
2021/09/14 01:19:34;;;;;;;19.75;14.38;;;;;;;11.97;82.13;99143.96;2271567;78;20916;-79
2021/09/14 01:22:34;;;;;;;18.67;14.50;;;;;;;11.90;82.00;99143.45;2285463;78;21244;-80
2021/09/14 01:25:35;;;;;;;60.20;16.35;;;;;;;11.86;82.19;99146.02;2259764;78;21312;-79
2021/09/14 01:28:35;;;;;;;30.00;14.58;;;;;;;11.82;82.28;99142.91;2284707;77;20976;-79
2021/09/14 01:31:36;;;;;;;18.65;13.55;;;;;;;11.79;82.51;99143.75;2259778;78;20951;-79
2021/09/14 01:34:36;;;;;;;46.90;15.93;;;;;;;11.74;82.25;99144.09;2279709;77;21453;-80
2021/09/14 01:37:37;;;;;;;19.32;13.93;;;;;;;11.71;82.46;99149.29;2282261;77;20920;-80
2021/09/14 01:40:37;;;;;;;31.47;15.27;;;;;;;11.66;82.35;99150.55;2268612;77;20982;-79
2021/09/14 01:43:39;;;;;;;31.23;15.98;;;;;;;11.66;82.61;99153.16;2287791;78;21011;-80
2021/09/14 01:46:40;;;;;;;26.95;16.87;;;;;;;11.64;82.32;99151.38;2274709;78;20949;-80
2021/09/14 01:49:40;;;;;;;26.17;15.28;;;;;;;11.59;82.16;99155.67;2270753;78;20953;-80
2021/09/14 01:52:41;;;;;;;28.83;16.62;;;;;;;11.53;82.24;99152.98;2271011;77;20991;-80
2021/09/14 01:55:42;;;;;;;22.03;15.43;;;;;;;11.44;82.18;99155.93;2284816;77;21015;-80
2021/09/14 01:58:42;;;;;;;19.37;14.70;;;;;;;11.37;82.05;99153.22;2267950;77;21421;-80
2021/09/14 02:01:50;;;;;;;26.50;15.33;;;;;;;11.34;82.01;99159.28;2255210;77;20955;-79
2021/09/14 02:04:56;;;;;;;25.27;15.03;;;;;;;11.28;82.06;99157.01;2254055;77;21024;-80
2021/09/14 02:33:55;;;;;;;21.47;13.57;;;;;;;10.78;82.01;99166.23;2249648;78;20959;-80
2021/09/14 02:43:22;;;;;;;16.37;12.57;;;;;;;10.65;81.84;99163.86;2244617;77;20991;-79
2021/09/14 02:59:09;;;;;;;20.83;12.03;;;;;;;10.46;81.81;99169.20;2259521;78;21030;-81
2021/09/14 03:02:10;;;;;;;17.20;11.80;;;;;;;10.42;81.73;99171.30;2254904;77;21046;-80
2021/09/14 03:05:11;;;;;;;13.73;11.40;;;;;;;10.35;81.30;99169.83;2270582;78;21324;-80
2021/09/14 03:08:11;;;;;;;25.10;12.83;;;;;;;10.26;81.30;99164.44;2292719;77;20975;-80
2021/09/14 03:11:12;;;;;;;22.73;13.37;;;;;;;10.23;81.40;99170.91;2287613;77;20967;-80
2021/09/14 03:14:12;;;;;;;19.67;13.23;;;;;;;10.19;81.45;99169.94;2248544;78;20960;-80
2021/09/14 03:17:13;;;;;;;19.30;12.50;;;;;;;10.17;81.57;99166.00;2295734;77;20968;-80
2021/09/14 03:20:13;;;;;;;19.50;13.70;;;;;;;10.16;81.54;99169.88;2261156;77;21387;-81
2021/09/14 03:23:14;;;;;;;17.57;12.30;;;;;;;10.13;81.58;99168.09;2278611;77;21374;-80
2021/09/14 03:26:14;;;;;;;19.77;13.33;;;;;;;10.11;81.58;99167.19;2264718;78;21063;-82
2021/09/14 03:29:17;;;;;;;19.47;12.80;;;;;;;10.06;81.53;99164.92;2283472;77;20987;-81
2021/09/14 03:32:17;;;;;;;19.93;12.60;;;;;;;10.05;81.57;99167.50;2289044;77;21079;-81
2021/09/14 03:35:18;;;;;;;15.77;11.63;;;;;;;10.01;81.41;99166.98;2264133;78;20983;-80
2021/09/14 03:38:18;;;;;;;18.23;12.10;;;;;;;9.93;81.19;99165.53;2263353;78;21034;-81
2021/09/14 03:41:19;;;;;;;23.33;12.53;;;;;;;9.84;81.16;99169.27;2263052;77;21011;-82
2021/09/14 03:44:19;;;;;;;20.40;11.93;;;;;;;9.76;81.14;99173.02;2260788;78;20975;-82
2021/09/14 03:47:20;;;;;;;27.63;12.47;;;;;;;9.74;81.47;99168.63;2280383;78;20963;-80
2021/09/14 03:50:20;;;;;;;17.03;12.53;;;;;;;9.71;81.62;99169.45;2296387;77;20941;-80
2021/09/14 03:53:21;;;;;;;18.03;11.67;;;;;;;9.68;81.51;99172.41;2250487;77;20924;-80
2021/09/14 03:56:21;;;;;;;47.40;13.87;;;;;;;9.60;81.40;99167.05;2278249;77;21019;-80
2021/09/14 03:59:22;;;;;;;21.43;12.70;;;;;;;9.53;81.51;99172.52;2264802;77;21003;-80
2021/09/14 04:08:52;;;;;;;18.48;11.63;;;;;;;9.51;81.75;99181.16;2245792;77;21023;-80
2021/09/14 04:11:53;;;;;;;18.67;11.53;;;;;;;9.49;81.54;99182.42;2255989;77;21004;-81
2021/09/14 04:14:53;;;;;;;16.23;11.07;;;;;;;9.47;81.46;99184.54;2264199;78;20987;-81
2021/09/14 04:17:53;;;;;;;13.07;11.37;;;;;;;9.43;81.37;99185.31;2279146;77;21011;-81
2021/09/14 04:20:54;;;;;;;25.80;17.80;;;;;;;9.42;81.37;99185.73;2281469;77;20943;-82
2021/09/14 04:23:55;;;;;;;16.10;11.67;;;;;;;9.46;81.35;99187.98;2250386;78;20968;-81
2021/09/14 04:26:55;;;;;;;17.93;11.77;;;;;;;9.43;81.20;99191.41;2283799;77;20972;-81
2021/09/14 04:29:56;;;;;;;17.40;11.17;;;;;;;9.43;81.16;99188.80;2277406;77;20939;-81
2021/09/14 04:32:56;;;;;;;17.63;11.53;;;;;;;9.39;81.04;99186.98;2261454;77;21324;-82
2021/09/14 04:35:57;;;;;;;17.97;11.90;;;;;;;9.36;80.98;99189.52;2254993;77;20936;-80
2021/09/14 04:38:57;;;;;;;21.93;13.97;;;;;;;9.38;81.11;99191.73;2248810;78;20939;-82
2021/09/14 04:41:58;;;;;;;21.23;12.83;;;;;;;9.41;81.12;99190.50;2262112;77;20927;-83
2021/09/14 04:44:58;;;;;;;14.73;11.50;;;;;;;9.45;81.10;99197.95;2267893;77;20947;-82
2021/09/14 04:47:59;;;;;;;17.73;11.73;;;;;;;9.48;80.97;99196.30;2267634;78;21351;-82
2021/09/14 04:50:59;;;;;;;47.23;15.20;;;;;;;9.53;80.86;99198.58;2274869;77;20952;-81
2021/09/14 04:54:00;;;;;;;27.80;14.43;;;;;;;9.65;81.38;99198.41;2282088;78;20963;-82
2021/09/14 04:57:00;;;;;;;22.47;13.83;;;;;;;9.75;81.15;99197.34;2260309;78;21042;-81
2021/09/14 05:00:01;;;;;;;21.10;13.37;;;;;;;9.83;80.99;99198.80;2266551;78;21004;-81
2021/09/14 05:03:01;;;;;;;17.90;14.20;;;;;;;9.86;80.65;99201.47;2286038;78;20999;-81
2021/09/14 05:06:02;;;;;;;16.27;13.53;;;;;;;9.92;80.70;99200.70;2286527;78;20973;-83
2021/09/14 05:09:02;;;;;;;20.50;14.90;;;;;;;10.63;87.78;99198.20;2261216;78;20948;-82
2021/09/14 05:12:03;;;;;;;23.73;15.20;;;;;;;12.47;86.83;99193.80;2260291;77;20956;-83
2021/09/14 05:15:03;;;;;;;25.08;15.30;;;;;;;13.87;82.65;99182.63;2280013;77;20968;-82
2021/09/14 05:18:10;;;;;;;19.75;13.25;;;;;;;14.77;78.02;99185.95;2247967;78;20960;-83
2021/09/14 05:21:06;;;;;;;18.27;13.78;;;;;;;15.31;76.19;99185.04;2291375;77;21028;-83
2021/09/14 05:24:07;;;;;;;18.05;12.58;;;;;;;15.71;73.94;99189.83;2282587;78;21008;-83
2021/09/14 05:27:07;;;;;;;23.22;13.30;;;;;;;16.07;72.76;99187.92;2279293;77;20991;-83
2021/09/14 05:30:08;;;;;;;15.32;12.40;;;;;;;16.43;71.17;99189.04;2273639;77;20986;-83
2021/09/14 05:33:08;;;;;;;22.05;11.97;;;;;;;16.76;69.67;99190.63;2285990;77;20950;-83
2021/09/14 05:36:09;;;;;;;24.63;12.30;;;;;;;16.85;68.11;99193.64;2273788;78;20955;-83
2021/09/14 05:39:09;;;;;;;32.67;13.25;;;;;;;17.01;67.98;99188.67;2272565;78;21006;-82
2021/09/14 05:42:10;;;;;;;14.90;10.93;;;;;;;16.96;66.89;99189.16;2275238;77;20960;-82
2021/09/14 05:45:10;;;;;;;31.02;12.70;;;;;;;16.09;65.23;99188.35;2280023;77;21647;-80
2021/09/14 05:48:11;;;;;;;18.98;11.93;;;;;;;15.27;66.18;99192.50;2256104;78;20951;-80
2021/09/14 05:51:11;;;;;;;20.62;11.57;;;;;;;14.76;67.62;99196.03;2272990;77;20951;-79
2021/09/14 05:54:12;;;;;;;36.25;12.93;;;;;;;14.48;68.91;99191.14;2280347;77;20963;-80
2021/09/14 05:57:12;;;;;;;59.90;16.27;;;;;;;14.34;70.50;99200.28;2273793;77;20999;-79
2021/09/14 06:00:13;;;;;;;28.92;14.18;;;;;;;14.34;70.50;99200.28;2277521;78;20982;-81
2021/09/14 06:03:13;;;;;;;39.90;13.83;;;;;;;14.38;70.98;99203.35;2264820;77;20975;-81
2021/09/14 06:06:14;;;;;;;23.20;14.00;;;;;;;14.75;72.86;99204.78;2260967;78;20998;-85
2021/09/14 06:09:15;;;;;;;25.52;15.03;;;;;;;14.75;72.86;99204.78;2271118;78;20962;-83
2021/09/14 06:12:15;;;;;;;24.95;14.55;;;;;;;15.15;72.73;99203.91;2260158;77;20967;-83
2021/09/14 06:15:16;;;;;;;31.65;17.20;;;;;;;15.37;72.23;99210.45;2275441;78;21312;-82
2021/09/14 06:18:16;;;;;;;80.67;23.60;;;;;;;15.12;71.44;99205.22;2275214;77;20968;-83
2021/09/14 06:21:17;;;;;;;45.92;19.62;;;;;;;15.06;72.29;99210.48;2293651;77;20979;-82
2021/09/14 06:24:17;;;;;;;33.00;21.50;;;;;;;15.03;72.36;99209.17;2290751;78;20947;-82
2021/09/14 06:27:18;;;;;;;36.65;19.48;;;;;;;15.01;72.78;99212.68;2272840;78;20999;-81
2021/09/14 06:30:18;;;;;;;52.67;21.05;;;;;;;15.07;73.20;99208.30;2280436;78;20990;-80
2021/09/14 06:33:21;;;;;;;28.05;19.57;;;;;;;15.19;73.36;99207.41;2291881;77;20979;-81
2021/09/14 06:36:21;;;;;;;27.73;18.75;;;;;;;15.37;73.59;99207.83;2278875;77;20963;-84
2021/09/14 06:39:22;;;;;;;30.82;19.98;;;;;;;15.42;73.39;99204.31;2260172;77;20955;-81
2021/09/14 06:42:25;;;;;;;25.97;19.50;;;;;;;15.48;73.42;99211.31;2279571;77;21344;-83
2021/09/14 06:45:25;;;;;;;24.95;20.23;;;;;;;15.65;73.60;99211.34;2265040;78;20979;-84
2021/09/14 06:48:25;;;;;;;28.23;20.15;;;;;;;15.77;73.17;99213.49;2270415;77;20959;-83
2021/09/14 06:51:26;;;;;;;32.42;20.20;;;;;;;15.83;72.92;99207.33;2279068;78;20963;-83
2021/09/14 06:54:26;;;;;;;27.90;19.85;;;;;;;15.85;73.00;99209.08;2292482;77;20929;-82
2021/09/14 06:57:27;;;;;;;27.40;20.80;;;;;;;15.97;73.04;99202.02;2274650;77;20999;-84
2021/09/14 07:00:27;;;;;;;26.05;18.70;;;;;;;16.12;72.69;99198.00;2286576;77;20948;-83
2021/09/14 07:03:28;;;;;;;24.72;20.15;;;;;;;16.32;73.47;99206.67;2277763;78;20976;-83
2021/09/14 07:06:28;;;;;;;32.88;22.13;;;;;;;16.55;72.88;99206.56;2290539;77;21093;-82
2021/09/14 07:09:36;;;;;;;30.35;22.27;;;;;;;16.69;72.30;99207.82;2268954;77;20960;-83
2021/09/14 07:12:37;;;;;;;32.38;20.88;;;;;;;16.79;72.37;99210.83;2267255;77;20936;-82
2021/09/14 07:15:37;;;;;;;27.80;21.62;;;;;;;16.95;72.11;99211.14;2273493;77;20943;-83
2021/09/14 07:18:38;;;;;;;28.17;20.02;;;;;;;17.12;72.13;99206.59;2293335;77;20980;-83
2021/09/14 07:21:39;;;;;;;24.80;20.40;;;;;;;17.04;71.44;99212.83;2266322;78;20995;-83
2021/09/14 07:24:40;;;;;;;29.92;21.00;;;;;;;17.06;71.48;99215.87;2278049;77;20960;-82
2021/09/14 07:27:40;;;;;;;25.65;20.75;;;;;;;17.22;71.05;99222.34;2248935;78;21367;-83
2021/09/14 07:30:42;;;;;;;38.13;21.43;;;;;;;17.28;71.64;99218.33;2294750;78;20936;-83
2021/09/14 07:33:43;;;;;;;26.55;20.17;;;;;;;17.66;70.87;99215.34;2292990;78;20952;-83
2021/09/14 07:36:44;;;;;;;22.25;19.00;;;;;;;18.04;70.75;99216.25;2257544;78;20924;-83
2021/09/14 07:39:44;;;;;;;23.52;17.48;;;;;;;18.19;69.46;99222.66;2279207;77;20959;-83
2021/09/14 07:42:45;;;;;;;28.40;17.92;;;;;;;18.57;68.95;99221.30;2262271;78;20955;-83
2021/09/14 07:45:45;;;;;;;18.73;15.70;;;;;;;18.64;68.48;99226.51;2266004;77;20984;-82
2021/09/14 07:48:46;;;;;;;19.17;15.50;;;;;;;19.28;68.89;99222.00;2264854;78;20967;-83
2021/09/14 07:51:47;;;;;;;23.52;14.33;;;;;;;19.77;67.73;99222.45;2264169;77;20920;-82
2021/09/14 07:54:47;;;;;;;16.00;12.50;;;;;;;20.34;65.95;99214.67;2289460;78;20967;-83
2021/09/14 07:57:48;;;;;;;13.53;11.05;;;;;;;20.96;65.33;99216.39;2295065;77;20998;-82
2021/09/14 08:00:48;;;;;;;20.60;12.63;;;;;;;21.63;62.54;99212.05;2277377;77;20960;-82
2021/09/14 08:03:49;;;;;;;22.52;11.20;;;;;;;21.91;62.48;99219.28;2289460;77;21284;-82
2021/09/14 08:06:49;;;;;;;10.93;9.83;;;;;;;22.36;60.32;99218.91;2280824;77;20999;-81
2021/09/14 08:09:50;;;;;;;9.93;8.85;;;;;;;22.31;58.62;99224.36;2286231;77;21353;-80
2021/09/14 08:15:53;;;;;;;23.77;9.93;;;;;;;22.56;57.51;99231.17;2155112;80;20991;-81
2021/09/14 08:18:54;;;;;;;11.43;8.43;;;;;;;22.61;56.82;99226.58;2204715;80;21711;-82
2021/09/14 08:21:54;;;;;;;12.55;8.63;;;;;;;22.28;55.62;99229.77;2186437;80;20968;-82
2021/09/14 08:24:55;;;;;;;9.40;8.18;;;;;;;22.10;56.33;99229.84;2189964;80;20948;-82
2021/09/14 08:27:57;;;;;;;13.58;9.20;;;;;;;22.27;56.91;99228.02;2203811;80;21034;-83
2021/09/14 08:30:57;;;;;;;22.42;9.58;;;;;;;22.53;56.79;99229.44;2227692;79;21011;-80
2021/09/14 08:33:58;;;;;;;12.05;8.88;;;;;;;22.74;56.76;99224.41;2237091;79;20995;-83
2021/09/14 08:36:58;;;;;;;13.93;7.05;;;;;;;22.84;55.73;99221.91;2223799;79;20971;-82
2021/09/14 08:39:59;;;;;;;9.40;6.75;;;;;;;22.84;55.73;99221.91;2226340;79;21300;-81
2021/09/14 08:42:59;;;;;;;21.17;6.75;;;;;;;22.61;51.90;99219.93;2227395;79;20940;-83
2021/09/14 08:46:00;;;;;;;19.90;6.92;;;;;;;22.52;54.01;99226.83;2206341;80;20971;-82
2021/09/14 08:49:01;;;;;;;11.63;5.72;;;;;;;22.70;54.64;99228.95;2186622;80;21007;-82
2021/09/14 08:52:01;;;;;;;7.17;6.47;;;;;;;23.01;52.57;99233.34;2219143;80;20960;-84
2021/09/14 08:55:02;;;;;;;8.83;6.12;;;;;;;22.68;51.40;99229.92;2197646;80;21015;-83
2021/09/14 08:58:05;;;;;;;9.40;6.28;;;;;;;22.55;51.84;99236.08;2184946;80;21006;-81
2021/09/14 09:01:05;;;;;;;12.98;6.60;;;;;;;22.32;53.64;99232.75;2188224;80;21015;-83
2021/09/14 09:04:05;;;;;;;5.60;5.00;;;;;;;22.59;53.74;99234.20;2196938;80;21309;-84
2021/09/14 09:07:06;;;;;;;9.10;4.95;;;;;;;23.12;52.49;99228.53;2280295;77;20920;-83
2021/09/14 09:10:06;;;;;;;8.08;5.30;;;;;;;23.01;50.75;99236.00;2292684;77;20951;-84
2021/09/14 09:13:07;;;;;;;6.60;4.20;;;;;;;22.80;49.54;99234.44;2293276;77;21003;-84
2021/09/14 09:16:12;;;;;;;8.13;5.55;;;;;;;22.54;48.34;99236.55;2188503;80;20978;-83
2021/09/14 09:19:13;;;;;;;6.87;5.35;;;;;;;22.30;50.41;99228.39;2177006;81;21331;-83
2021/09/14 09:22:13;;;;;;;6.25;4.03;;;;;;;22.05;50.88;99240.20;2207080;79;20982;-83
2021/09/14 09:25:14;;;;;;;6.05;4.35;;;;;;;22.27;52.94;99237.79;2188423;80;20964;-83
2021/09/14 09:28:16;;;;;;;5.10;4.22;;;;;;;22.62;51.67;99243.41;2168240;80;21418;-82
2021/09/14 09:31:16;;;;;;;8.55;4.80;;;;;;;22.73;50.71;99235.97;2239555;79;21336;-82
2021/09/14 09:34:17;;;;;;;5.37;4.30;;;;;;;22.94;51.32;99240.65;2244118;79;20995;-83
2021/09/14 09:37:17;;;;;;;12.40;4.40;;;;;;;23.23;50.00;99246.36;2234856;79;20933;-83
2021/09/14 09:40:18;;;;;;;7.70;4.45;;;;;;;23.51;50.69;99245.00;2247246;79;21335;-85
2021/09/14 09:43:18;;;;;;;5.37;3.83;;;;;;;23.88;50.11;99247.75;2241080;79;21353;-83
2021/09/14 09:46:20;;;;;;;6.28;4.05;;;;;;;24.11;49.44;99247.31;2236940;79;20936;-82
2021/09/14 09:49:24;;;;;;;4.40;3.90;;;;;;;24.26;48.88;99246.34;2246672;79;21012;-83
2021/09/14 09:52:24;;;;;;;;;;;;;;;24.40;48.40;99240.09;2236988;79;21019;-82
2021/09/14 09:55:28;;;;;;;3.65;3.30;;;;;;;24.50;47.80;99241.48;2243536;79;20330;-84
2021/09/14 09:58:27;;;;;;;5.28;2.98;;;;;;;24.52;47.15;99244.96;2235894;79;21043;-84
2021/09/14 10:01:28;;;;;;;3.67;3.37;;;;;;;24.08;44.45;99247.43;2221083;79;20940;-83
2021/09/14 10:04:28;;;;;;;8.58;3.35;;;;;;;23.55;44.95;99250.67;2232529;79;20955;-83
2021/09/14 10:07:29;;;;;;;5.15;3.33;;;;;;;22.92;44.48;99249.14;2240211;79;21408;-83
2021/09/14 10:10:29;;;;;;;5.50;3.62;;;;;;;22.66;45.81;99243.27;2251260;79;20921;-82
2021/09/14 10:13:30;;;;;;;6.70;3.83;;;;;;;22.66;45.62;99235.30;2233804;79;21007;-82
2021/09/14 10:16:39;;;;;;;5.60;3.30;;;;;;;22.77;45.77;99239.82;2238896;79;20927;-83
2021/09/14 10:19:39;;;;;;;8.90;4.37;;;;;;;22.80;45.10;99241.09;2229047;79;20970;-83
2021/09/14 10:22:40;;;;;;;3.87;3.52;;;;;;;22.85;46.33;99240.48;2245879;79;21635;-84
2021/09/14 10:25:45;;;;;;;4.92;3.62;;;;;;;22.79;45.77;99238.44;2262942;78;20951;-83
2021/09/14 10:28:43;;;;;;;6.45;3.45;;;;;;;22.67;45.24;99242.36;2272928;78;20960;-83
2021/09/14 10:31:43;;;;;;;3.42;3.10;;;;;;;22.84;46.18;99237.41;2284800;77;20964;-83
2021/09/14 10:34:44;;;;;;;5.83;4.17;;;;;;;23.33;46.47;99238.94;2286379;77;20974;-83
2021/09/14 10:37:48;;;;;;;6.28;4.08;;;;;;;23.20;44.35;99242.00;2269665;77;20933;-83
2021/09/14 10:40:48;;;;;;;5.40;4.58;;;;;;;22.74;44.69;99238.59;2298188;77;21320;-82
2021/09/14 10:43:49;;;;;;;7.97;3.87;;;;;;;22.74;44.69;99238.59;2274485;78;20963;-83
2021/09/14 10:46:50;;;;;;;8.50;3.70;;;;;;;22.75;46.19;99231.02;2280049;78;20991;-81
2021/09/14 10:49:51;;;;;;;5.50;3.75;;;;;;;22.91;45.78;99234.55;2279576;77;21069;-83
2021/09/14 10:52:52;;;;;;;5.00;4.08;;;;;;;22.91;45.18;99239.87;2176764;80;21006;-82
2021/09/14 10:55:53;;;;;;;4.72;4.25;;;;;;;22.80;45.01;99235.77;2195732;80;21013;-83
2021/09/14 10:58:55;;;;;;;4.28;3.87;;;;;;;22.77;44.29;99233.17;2208639;80;21338;-83
2021/09/14 11:01:57;;;;;;;4.12;3.40;;;;;;;23.19;46.03;99230.08;2217465;79;20938;-82
2021/09/14 11:04:58;;;;;;;7.33;3.85;;;;;;;23.70;43.60;99231.94;2228079;79;21379;-83
2021/09/14 11:07:59;;;;;;;6.50;3.25;;;;;;;23.42;43.02;99232.87;2225626;79;21021;-83
2021/09/14 11:10:59;;;;;;;4.35;3.95;;;;;;;23.51;43.08;99232.55;2220421;79;20951;-82
2021/09/14 11:14:00;;;;;;;4.65;3.52;;;;;;;23.23;41.93;99230.84;2256626;78;21354;-84
2021/09/14 11:17:01;;;;;;;3.87;3.58;;;;;;;23.12;43.23;99231.20;2268396;78;20948;-83
2021/09/14 11:20:02;;;;;;;6.60;4.03;;;;;;;22.89;42.35;99231.94;2288219;77;21011;-82
2021/09/14 11:23:04;;;;;;;5.47;4.03;;;;;;;22.75;43.09;99219.04;2269962;78;20947;-83
2021/09/14 11:26:04;;;;;;;4.08;3.50;;;;;;;22.87;43.75;99221.80;2258644;77;21000;-83
2021/09/14 11:29:05;;;;;;;6.72;3.77;;;;;;;23.02;44.56;99219.11;2293012;77;20972;-82
2021/09/14 11:32:05;;;;;;;3.92;3.62;;;;;;;23.73;43.99;99218.51;2209520;80;20972;-83
2021/09/14 11:35:06;;;;;;;8.25;4.08;;;;;;;24.02;41.55;99218.78;2193507;80;20967;-81
2021/09/14 11:38:06;;;;;;;4.33;3.72;;;;;;;23.70;43.15;99218.62;2230870;79;20984;-84
2021/09/14 11:41:07;;;;;;;8.45;4.30;;;;;;;24.04;42.25;99216.94;2182068;80;20972;-84
2021/09/14 11:44:07;;;;;;;17.05;4.22;;;;;;;23.63;41.46;99214.43;2234151;79;21024;-83
2021/09/14 11:47:08;;;;;;;5.92;4.08;;;;;;;23.29;42.86;99213.33;2201640;80;20968;-82
2021/09/14 11:50:09;;;;;;;4.40;3.70;;;;;;;23.47;43.36;99212.27;2197177;80;21003;-82
2021/09/14 11:53:11;;;;;;;15.80;4.70;;;;;;;23.76;42.29;99207.73;2182958;80;21016;-83
2021/09/14 11:56:11;;;;;;;4.42;3.60;;;;;;;23.91;43.74;99209.84;2173630;80;21047;-83
2021/09/14 11:59:12;;;;;;;4.97;4.00;;;;;;;24.48;41.96;99203.78;2202353;80;21003;-84
2021/09/14 12:02:12;;;;;;;4.75;4.28;;;;;;;24.23;41.11;99202.45;2200568;80;21013;-83
2021/09/14 12:05:13;;;;;;;13.20;4.45;;;;;;;24.03;40.65;99204.53;2206637;80;20991;-83
2021/09/14 12:08:13;;;;;;;10.10;4.10;;;;;;;23.90;42.16;99199.24;2184537;80;20976;-83
2021/09/14 12:11:14;;;;;;;7.28;4.60;;;;;;;24.39;42.02;99205.88;2174945;80;20959;-83
2021/09/14 12:14:14;;;;;;;13.53;5.00;;;;;;;24.32;41.27;99200.83;2190548;80;21015;-83
2021/09/14 12:17:18;;;;;;;9.23;4.60;;;;;;;23.80;40.50;99201.37;2192639;80;21432;-82
2021/09/14 12:20:19;;;;;;;5.67;5.10;;;;;;;23.54;41.56;99196.94;2196393;80;20952;-84
2021/09/14 12:23:19;;;;;;;4.67;4.28;;;;;;;23.57;42.00;99209.31;2188099;80;21312;-83
2021/09/14 12:26:20;;;;;;;4.90;4.50;;;;;;;23.59;41.37;99200.80;2199502;80;20977;-84
2021/09/14 12:29:20;;;;;;;5.35;4.22;;;;;;;23.75;40.89;99194.00;2183635;80;20975;-83
2021/09/14 12:32:21;;;;;;;5.40;3.90;;;;;;;24.00;41.82;99189.98;2166064;80;20948;-83
2021/09/14 12:35:21;;;;;;;4.35;4.05;;;;;;;23.87;40.86;99190.02;2173549;80;20971;-82
2021/09/14 12:38:22;;;;;;;4.30;3.90;;;;;;;23.38;41.96;99192.57;2175909;80;21414;-82
2021/09/14 12:41:22;;;;;;;5.87;4.08;;;;;;;23.06;43.04;99187.00;2196134;80;21007;-81
2021/09/14 12:44:23;;;;;;;6.60;4.17;;;;;;;22.84;43.29;99183.31;2174169;80;20984;-82
2021/09/14 12:47:23;;;;;;;4.58;3.77;;;;;;;22.80;43.34;99178.55;2207122;80;20989;-83
2021/09/14 12:50:25;;;;;;;11.85;4.92;;;;;;;22.61;43.74;99177.82;2204927;80;21012;-82
2021/09/14 12:53:26;;;;;;;7.62;4.22;;;;;;;22.58;43.78;99173.47;2194324;80;20972;-83
2021/09/14 12:56:26;;;;;;;4.90;4.30;;;;;;;22.51;43.91;99171.89;2189201;80;21020;-82
2021/09/14 12:59:27;;;;;;;5.03;4.00;;;;;;;22.52;43.48;99170.51;2251160;78;21287;-83
2021/09/14 13:02:27;;;;;;;5.35;4.35;;;;;;;22.48;43.57;99173.31;2278478;78;21157;-83
2021/09/14 13:05:28;;;;;;;5.08;4.37;;;;;;;22.62;43.71;99164.47;2265974;78;20983;-83
2021/09/14 13:08:28;;;;;;;5.45;4.25;;;;;;;22.61;43.36;99164.52;2196820;81;20940;-83
2021/09/14 13:11:29;;;;;;;7.08;4.25;;;;;;;22.66;43.76;99164.78;2204805;80;21046;-82
2021/09/14 13:17:48;;;;;;;8.40;4.30;;;;;;;22.28;44.28;99165.08;2186164;80;21074;-82
2021/09/14 13:20:49;;;;;;;5.35;4.12;;;;;;;22.06;44.14;99173.70;2184892;80;20968;-83
2021/09/14 13:23:50;;;;;;;62.85;9.30;;;;;;;21.88;44.74;99168.88;2193842;80;20979;-82
2021/09/14 13:26:51;;;;;;;5.55;4.53;;;;;;;22.10;45.84;99166.05;2191102;80;21039;-83
2021/09/14 13:29:51;;;;;;;4.90;4.15;;;;;;;22.43;44.60;99168.59;2210561;80;20932;-84
2021/09/14 13:32:53;;;;;;;5.35;4.50;;;;;;;22.39;43.88;99165.62;2186754;80;20951;-84
2021/09/14 13:35:54;;;;;;;5.78;4.33;;;;;;;22.24;43.99;99169.16;2244997;79;20929;-83
2021/09/14 13:38:54;;;;;;;8.68;4.45;;;;;;;22.06;44.74;99171.03;2295463;77;21370;-84
2021/09/14 13:41:57;;;;;;;4.70;3.95;;;;;;;22.00;45.15;99170.31;2269509;77;21007;-83
2021/09/14 13:48:00;;;;;;;12.73;5.40;;;;;;;21.76;45.12;99163.92;2231765;77;20963;-83
2021/09/14 13:51:00;;;;;;;6.30;4.17;;;;;;;21.78;46.58;99160.76;2275818;77;20983;-82
2021/09/14 13:54:01;;;;;;;5.90;4.40;;;;;;;21.78;47.14;99162.95;2258407;77;20974;-83
2021/09/14 13:57:01;;;;;;;4.90;4.50;;;;;;;22.04;46.59;99160.91;2287096;78;21312;-83
2021/09/14 14:00:02;;;;;;;4.87;4.42;;;;;;;22.14;45.95;99155.73;2288703;78;21305;-83
2021/09/14 14:03:02;;;;;;;4.70;4.30;;;;;;;22.22;45.28;99157.70;2288205;77;20963;-83
2021/09/14 14:06:02;;;;;;;5.28;4.78;;;;;;;22.23;44.80;99154.13;2269982;78;20925;-85
2021/09/14 14:09:03;;;;;;;4.92;4.40;;;;;;;22.21;44.35;99155.95;2210157;80;20980;-83
2021/09/14 14:12:04;;;;;;;5.60;4.10;;;;;;;22.15;44.07;99148.63;2193586;80;21007;-84
2021/09/14 14:15:04;;;;;;;11.53;4.67;;;;;;;22.03;44.37;99145.88;2226140;79;21422;-81
2021/09/14 14:18:05;;;;;;;5.65;4.40;;;;;;;22.09;46.05;99146.15;2187532;80;20999;-83
2021/09/14 14:21:05;;;;;;;5.00;4.55;;;;;;;22.31;44.64;99145.91;2246556;79;20968;-84
2021/09/14 14:24:06;;;;;;;9.35;4.87;;;;;;;22.44;44.14;99146.39;2199629;80;20972;-83
2021/09/14 14:27:06;;;;;;;7.70;5.47;;;;;;;22.51;44.25;99135.52;2189318;80;20988;-83
2021/09/14 14:30:07;;;;;;;4.60;4.08;;;;;;;22.76;44.71;99136.95;2183923;80;20987;-83
2021/09/14 14:33:10;;;;;;;6.75;6.03;;;;;;;22.94;43.55;99141.29;2184221;80;21019;-84
2021/09/14 14:36:10;;;;;;;12.00;9.30;;;;;;;22.75;44.61;99139.20;2176103;80;21009;-81
2021/09/14 14:39:11;;;;;;;9.65;7.47;;;;;;;22.72;45.24;99139.30;2196242;80;20973;-83
2021/09/14 14:42:11;;;;;;;7.60;5.78;;;;;;;22.80;45.47;99134.64;2202011;80;21038;-85
2021/09/14 14:45:12;;;;;;;5.05;4.62;;;;;;;23.07;44.86;99131.97;2205625;80;20984;-83
2021/09/14 14:48:12;;;;;;;9.33;6.22;;;;;;;23.25;45.01;99139.32;2202051;80;20945;-81
2021/09/14 14:51:13;;;;;;;6.72;5.50;;;;;;;23.34;44.74;99136.33;2195013;80;20971;-82
2021/09/14 14:54:13;;;;;;;5.78;5.10;;;;;;;23.46;44.56;99131.94;2186820;80;21047;-82
2021/09/14 14:57:14;;;;;;;7.20;6.45;;;;;;;23.36;44.13;99133.16;2189495;80;21415;-81
2021/09/14 15:00:14;;;;;;;16.12;6.17;;;;;;;23.35;44.59;99131.87;2239366;79;20932;-84